FAC7249 EPKK-SKBO
Flight info
| Callsign | FAC7249 |
|---|---|
| Flight time | N/A |
| Altitude | FL310 |
| Route | EPKK SID OMFOL T738 LASIS L986 SAS L980 RKN L602 TENLI L980 FLEVO L602 NALAX L46 GETNO/N0485F320 DCT IOM DCT ERNAN DCT REVNU DCT RESNO/M085F340 NATB NEEKO/N0485F360 Q822 ENE Q480 BEEKN Q97 YAZUU Q167 ZIZZI Q445 TBONN Q97 CAANO Q167 PAJET Q445 ZJAAY Q97 KALDA Q161 CHIEZ Y291 SAGGY AR19 JRDAN AR3 JAZZI Y307 ADUCI AR3 CARPX Y307 CASPR AR3 NUCAR Y307 ENAMO UM218 LOKOV UG444 EJA UQ119 ILSEV STAR SKBO |
| Aircraft | B744/H-S/N |
Departure
| Time | 2026-05-04 16:39 |
|---|---|
| Airport | Kraków John Paul II International Airport (EPKK) |
Arrival
| Time | N/A |
|---|---|
| Airport | El Dorado International Airport (SKBO) |
| Time | Latitude | Longitude | Altitude | Speed | Heading |
|---|---|---|---|---|---|
| 2026-05-04 16:17 | 50.07440 | 19.78686 | 809 ft | 0 kts | 337° |
| 2026-05-04 16:19 | 50.07455 | 19.78741 | 810 ft | 47 kts | 337° |
| 2026-05-04 16:20 | 50.07531 | 19.78999 | 809 ft | 0 kts | 336° |
| 2026-05-04 16:35 | 50.07546 | 19.78999 | 809 ft | 5 kts | 15° |
| 2026-05-04 16:36 | 50.07590 | 19.79068 | 809 ft | 14 kts | 64° |
| 2026-05-04 16:36 | 50.07656 | 19.79493 | 809 ft | 24 kts | 77° |
| 2026-05-04 16:37 | 50.07731 | 19.80028 | 809 ft | 20 kts | 78° |
| 2026-05-04 16:37 | 50.07750 | 19.80168 | 809 ft | 10 kts | 78° |
| 2026-05-04 16:37 | 50.07914 | 19.80309 | 809 ft | 26 kts | 348° |
| 2026-05-04 16:38 | 50.07929 | 19.79627 | 809 ft | 67 kts | 258° |
| 2026-05-04 16:39 | 50.07349 | 19.75325 | 1154 ft | 184 kts | 258° |
| 2026-05-04 16:39 | 50.06721 | 19.70877 | 2127 ft | 227 kts | 256° |
| 2026-05-04 16:40 | 50.05882 | 19.65899 | 3433 ft | 243 kts | 255° |
| 2026-05-04 16:40 | 50.04962 | 19.60691 | 4814 ft | 254 kts | 255° |
| 2026-05-04 16:41 | 50.03991 | 19.55359 | 6105 ft | 259 kts | 255° |
| 2026-05-04 16:41 | 50.02443 | 19.47232 | 7970 ft | 266 kts | 255° |
| 2026-05-04 16:42 | 50.00581 | 19.38058 | 9682 ft | 326 kts | 258° |
| 2026-05-04 16:43 | 50.00679 | 19.30859 | 10873 ft | 343 kts | 279° |
| 2026-05-04 16:43 | 50.02144 | 19.23690 | 12008 ft | 353 kts | 287° |
| 2026-05-04 16:43 | 50.03043 | 19.20121 | 12564 ft | 357 kts | 289° |
| 2026-05-04 16:44 | 50.06953 | 19.05690 | 14768 ft | 369 kts | 290° |
| 2026-05-04 16:45 | 50.09023 | 18.98314 | 15877 ft | 374 kts | 291° |
| 2026-05-04 16:46 | 50.12200 | 18.87145 | 17532 ft | 382 kts | 291° |
| 2026-05-04 16:46 | 50.14369 | 18.79507 | 18642 ft | 387 kts | 291° |
| 2026-05-04 16:47 | 50.16532 | 18.71794 | 19749 ft | 392 kts | 291° |
| 2026-05-04 16:47 | 50.18683 | 18.63963 | 20852 ft | 397 kts | 291° |
| 2026-05-04 16:48 | 50.21906 | 18.51882 | 22512 ft | 407 kts | 291° |
| 2026-05-04 16:48 | 50.22979 | 18.47780 | 23064 ft | 411 kts | 291° |
| 2026-05-04 16:49 | 50.25143 | 18.39459 | 24168 ft | 419 kts | 291° |
| 2026-05-04 16:49 | 50.27337 | 18.30963 | 25274 ft | 426 kts | 291° |
| 2026-05-04 16:50 | 50.29630 | 18.22037 | 26172 ft | 454 kts | 291° |
| 2026-05-04 16:50 | 50.31999 | 18.12790 | 26931 ft | 463 kts | 291° |
| 2026-05-04 16:51 | 50.34413 | 18.03406 | 27686 ft | 467 kts | 292° |
| 2026-05-04 16:51 | 50.35708 | 17.98736 | 28066 ft | 468 kts | 293° |
| 2026-05-04 16:51 | 50.38427 | 17.89447 | 28822 ft | 475 kts | 294° |
| 2026-05-04 16:52 | 50.41748 | 17.80487 | 29598 ft | 479 kts | 305° |
| 2026-05-04 16:52 | 50.43699 | 17.76270 | 29989 ft | 480 kts | 304° |
| 2026-05-04 16:53 | 50.47425 | 17.67608 | 30751 ft | 480 kts | 302° |
| 2026-05-04 16:53 | 50.52487 | 17.54079 | 31783 ft | 481 kts | 297° |
| 2026-05-04 16:54 | 50.54053 | 17.49442 | 31945 ft | 480 kts | 296° |